sensor_id;sensor_type;location;lat;lon;timestamp;P1;durP1;ratioP1;P2;durP2;ratioP2
23578;SDS011;11967;50.852;4.400;2023-07-16T00:02:09;9.23;;;2.25;;
23578;SDS011;11967;50.852;4.400;2023-07-16T00:04:35;6.85;;;2.20;;
23578;SDS011;11967;50.852;4.400;2023-07-16T00:07:01;9.65;;;2.20;;
23578;SDS011;11967;50.852;4.400;2023-07-16T00:09:27;12.35;;;3.08;;
23578;SDS011;11967;50.852;4.400;2023-07-16T00:11:53;14.60;;;3.15;;
23578;SDS011;11967;50.852;4.400;2023-07-16T00:14:18;11.20;;;2.45;;
23578;SDS011;11967;50.852;4.400;2023-07-16T00:16:45;8.52;;;2.47;;
23578;SDS011;11967;50.852;4.400;2023-07-16T00:19:11;8.48;;;2.35;;
23578;SDS011;11967;50.852;4.400;2023-07-16T00:21:37;7.50;;;2.50;;
23578;SDS011;11967;50.852;4.400;2023-07-16T00:24:03;16.50;;;3.25;;
23578;SDS011;11967;50.852;4.400;2023-07-16T00:26:29;7.63;;;2.42;;
23578;SDS011;11967;50.852;4.400;2023-07-16T00:28:55;8.85;;;2.58;;
23578;SDS011;11967;50.852;4.400;2023-07-16T00:31:21;11.48;;;2.83;;
23578;SDS011;11967;50.852;4.400;2023-07-16T00:33:47;11.27;;;2.90;;
23578;SDS011;11967;50.852;4.400;2023-07-16T00:36:13;8.13;;;2.83;;
23578;SDS011;11967;50.852;4.400;2023-07-16T00:38:39;10.82;;;2.65;;
23578;SDS011;11967;50.852;4.400;2023-07-16T00:41:06;13.82;;;2.78;;
23578;SDS011;11967;50.852;4.400;2023-07-16T00:43:32;9.70;;;2.40;;
23578;SDS011;11967;50.852;4.400;2023-07-16T00:45:57;15.85;;;2.80;;
23578;SDS011;11967;50.852;4.400;2023-07-16T00:48:23;10.35;;;3.20;;
23578;SDS011;11967;50.852;4.400;2023-07-16T00:50:50;10.48;;;2.70;;
23578;SDS011;11967;50.852;4.400;2023-07-16T00:53:19;8.57;;;2.33;;
23578;SDS011;11967;50.852;4.400;2023-07-16T00:55:45;13.32;;;3.00;;
23578;SDS011;11967;50.852;4.400;2023-07-16T00:58:11;7.40;;;2.33;;
23578;SDS011;11967;50.852;4.400;2023-07-16T01:00:37;10.65;;;2.50;;
23578;SDS011;11967;50.852;4.400;2023-07-16T01:03:05;9.18;;;2.63;;
23578;SDS011;11967;50.852;4.400;2023-07-16T01:05:46;11.30;;;2.72;;
23578;SDS011;11967;50.852;4.400;2023-07-16T01:08:32;7.47;;;2.55;;
23578;SDS011;11967;50.852;4.400;2023-07-16T01:11:05;9.48;;;2.70;;
23578;SDS011;11967;50.852;4.400;2023-07-16T01:13:32;13.23;;;3.15;;
23578;SDS011;11967;50.852;4.400;2023-07-16T01:16:00;11.73;;;3.10;;
23578;SDS011;11967;50.852;4.400;2023-07-16T01:18:27;8.82;;;2.72;;
23578;SDS011;11967;50.852;4.400;2023-07-16T01:20:53;8.77;;;2.97;;
23578;SDS011;11967;50.852;4.400;2023-07-16T01:29:18;8.93;;;3.40;;
23578;SDS011;11967;50.852;4.400;2023-07-16T01:31:52;12.57;;;3.33;;
23578;SDS011;11967;50.852;4.400;2023-07-16T01:34:21;8.20;;;3.55;;
23578;SDS011;11967;50.852;4.400;2023-07-16T01:36:48;7.47;;;3.13;;
23578;SDS011;11967;50.852;4.400;2023-07-16T01:39:14;10.68;;;3.63;;
23578;SDS011;11967;50.852;4.400;2023-07-16T01:41:41;11.00;;;3.42;;
23578;SDS011;11967;50.852;4.400;2023-07-16T01:44:06;15.15;;;3.67;;
23578;SDS011;11967;50.852;4.400;2023-07-16T01:46:32;11.57;;;3.30;;
23578;SDS011;11967;50.852;4.400;2023-07-16T01:48:58;11.02;;;3.60;;
23578;SDS011;11967;50.852;4.400;2023-07-16T01:51:23;8.98;;;3.20;;
23578;SDS011;11967;50.852;4.400;2023-07-16T01:53:49;11.43;;;3.05;;
23578;SDS011;11967;50.852;4.400;2023-07-16T01:56:15;8.38;;;3.33;;
23578;SDS011;11967;50.852;4.400;2023-07-16T01:58:41;9.30;;;3.00;;
23578;SDS011;11967;50.852;4.400;2023-07-16T02:01:06;6.78;;;2.78;;
23578;SDS011;11967;50.852;4.400;2023-07-16T02:03:32;14.07;;;3.47;;
23578;SDS011;11967;50.852;4.400;2023-07-16T02:05:58;8.43;;;2.90;;
23578;SDS011;11967;50.852;4.400;2023-07-16T02:08:23;11.48;;;2.80;;
23578;SDS011;11967;50.852;4.400;2023-07-16T02:10:49;10.15;;;3.30;;
23578;SDS011;11967;50.852;4.400;2023-07-16T02:13:14;14.98;;;3.42;;
23578;SDS011;11967;50.852;4.400;2023-07-16T02:15:40;9.98;;;3.13;;
23578;SDS011;11967;50.852;4.400;2023-07-16T02:18:07;11.75;;;4.32;;
23578;SDS011;11967;50.852;4.400;2023-07-16T02:20:32;10.93;;;3.85;;
23578;SDS011;11967;50.852;4.400;2023-07-16T02:22:58;12.60;;;3.22;;
23578;SDS011;11967;50.852;4.400;2023-07-16T02:25:25;10.70;;;3.50;;
23578;SDS011;11967;50.852;4.400;2023-07-16T02:27:50;11.10;;;3.60;;
23578;SDS011;11967;50.852;4.400;2023-07-16T02:30:16;13.93;;;4.38;;
23578;SDS011;11967;50.852;4.400;2023-07-16T02:32:42;13.52;;;4.10;;
23578;SDS011;11967;50.852;4.400;2023-07-16T02:35:08;9.25;;;3.95;;
23578;SDS011;11967;50.852;4.400;2023-07-16T02:37:34;12.10;;;4.40;;
23578;SDS011;11967;50.852;4.400;2023-07-16T02:39:59;9.45;;;4.57;;
23578;SDS011;11967;50.852;4.400;2023-07-16T02:42:25;12.13;;;4.40;;
23578;SDS011;11967;50.852;4.400;2023-07-16T02:44:51;15.55;;;5.10;;
23578;SDS011;11967;50.852;4.400;2023-07-16T02:47:17;12.43;;;4.57;;
23578;SDS011;11967;50.852;4.400;2023-07-16T02:49:42;12.20;;;4.45;;
23578;SDS011;11967;50.852;4.400;2023-07-16T02:52:08;14.00;;;5.20;;
23578;SDS011;11967;50.852;4.400;2023-07-16T02:54:37;13.65;;;4.85;;
23578;SDS011;11967;50.852;4.400;2023-07-16T02:57:03;16.63;;;5.18;;
23578;SDS011;11967;50.852;4.400;2023-07-16T02:59:29;13.48;;;5.32;;
23578;SDS011;11967;50.852;4.400;2023-07-16T03:01:54;13.13;;;5.18;;
23578;SDS011;11967;50.852;4.400;2023-07-16T03:04:20;9.85;;;4.90;;
23578;SDS011;11967;50.852;4.400;2023-07-16T03:06:46;11.60;;;5.20;;
23578;SDS011;11967;50.852;4.400;2023-07-16T03:09:11;11.90;;;4.45;;
23578;SDS011;11967;50.852;4.400;2023-07-16T03:11:37;11.98;;;4.75;;
23578;SDS011;11967;50.852;4.400;2023-07-16T03:14:02;10.30;;;5.10;;
23578;SDS011;11967;50.852;4.400;2023-07-16T03:16:28;11.75;;;4.68;;
23578;SDS011;11967;50.852;4.400;2023-07-16T03:18:54;10.95;;;4.70;;
23578;SDS011;11967;50.852;4.400;2023-07-16T03:21:19;13.32;;;5.05;;
23578;SDS011;11967;50.852;4.400;2023-07-16T03:23:45;12.13;;;4.68;;
23578;SDS011;11967;50.852;4.400;2023-07-16T03:26:11;14.45;;;5.15;;
23578;SDS011;11967;50.852;4.400;2023-07-16T03:28:36;12.75;;;4.75;;
23578;SDS011;11967;50.852;4.400;2023-07-16T03:31:02;14.88;;;4.70;;
23578;SDS011;11967;50.852;4.400;2023-07-16T03:33:27;13.43;;;4.72;;
23578;SDS011;11967;50.852;4.400;2023-07-16T03:35:53;14.95;;;4.60;;
23578;SDS011;11967;50.852;4.400;2023-07-16T03:38:19;11.77;;;4.95;;
23578;SDS011;11967;50.852;4.400;2023-07-16T03:40:48;16.92;;;5.25;;
23578;SDS011;11967;50.852;4.400;2023-07-16T03:43:15;11.70;;;4.72;;
23578;SDS011;11967;50.852;4.400;2023-07-16T03:45:41;14.02;;;5.47;;
23578;SDS011;11967;50.852;4.400;2023-07-16T03:48:07;9.77;;;4.97;;
23578;SDS011;11967;50.852;4.400;2023-07-16T03:50:33;10.35;;;4.97;;
23578;SDS011;11967;50.852;4.400;2023-07-16T03:52:59;13.77;;;5.90;;
23578;SDS011;11967;50.852;4.400;2023-07-16T03:55:25;14.80;;;5.78;;
23578;SDS011;11967;50.852;4.400;2023-07-16T03:57:51;19.02;;;5.85;;
23578;SDS011;11967;50.852;4.400;2023-07-16T04:00:17;14.50;;;5.38;;
23578;SDS011;11967;50.852;4.400;2023-07-16T04:02:42;13.55;;;5.75;;
23578;SDS011;11967;50.852;4.400;2023-07-16T04:05:08;14.25;;;5.43;;
23578;SDS011;11967;50.852;4.400;2023-07-16T04:07:34;14.18;;;5.85;;
23578;SDS011;11967;50.852;4.400;2023-07-16T04:10:00;12.60;;;5.13;;
23578;SDS011;11967;50.852;4.400;2023-07-16T04:12:26;14.48;;;5.50;;
23578;SDS011;11967;50.852;4.400;2023-07-16T04:14:56;17.27;;;5.68;;
23578;SDS011;11967;50.852;4.400;2023-07-16T04:17:23;12.80;;;6.07;;
23578;SDS011;11967;50.852;4.400;2023-07-16T04:19:49;16.13;;;5.72;;
23578;SDS011;11967;50.852;4.400;2023-07-16T04:22:15;14.93;;;5.75;;
23578;SDS011;11967;50.852;4.400;2023-07-16T04:24:41;16.08;;;5.80;;
23578;SDS011;11967;50.852;4.400;2023-07-16T04:27:07;19.02;;;6.32;;
23578;SDS011;11967;50.852;4.400;2023-07-16T04:29:33;16.88;;;6.53;;
23578;SDS011;11967;50.852;4.400;2023-07-16T04:31:59;16.73;;;6.13;;
23578;SDS011;11967;50.852;4.400;2023-07-16T04:34:24;20.23;;;5.90;;
23578;SDS011;11967;50.852;4.400;2023-07-16T04:36:50;18.90;;;6.55;;
23578;SDS011;11967;50.852;4.400;2023-07-16T04:39:16;14.30;;;5.95;;
23578;SDS011;11967;50.852;4.400;2023-07-16T04:41:41;23.52;;;6.13;;
23578;SDS011;11967;50.852;4.400;2023-07-16T04:44:07;10.70;;;5.80;;
23578;SDS011;11967;50.852;4.400;2023-07-16T04:46:32;18.05;;;6.32;;
23578;SDS011;11967;50.852;4.400;2023-07-16T04:48:58;13.05;;;5.70;;
23578;SDS011;11967;50.852;4.400;2023-07-16T04:51:24;13.52;;;6.10;;
23578;SDS011;11967;50.852;4.400;2023-07-16T04:53:50;14.43;;;6.00;;
23578;SDS011;11967;50.852;4.400;2023-07-16T04:56:16;14.68;;;6.28;;
23578;SDS011;11967;50.852;4.400;2023-07-16T04:58:42;17.52;;;6.85;;
23578;SDS011;11967;50.852;4.400;2023-07-16T05:01:08;15.48;;;6.70;;
23578;SDS011;11967;50.852;4.400;2023-07-16T05:03:34;15.18;;;7.03;;
23578;SDS011;11967;50.852;4.400;2023-07-16T05:06:00;20.50;;;6.72;;
23578;SDS011;11967;50.852;4.400;2023-07-16T05:08:26;13.55;;;6.68;;
23578;SDS011;11967;50.852;4.400;2023-07-16T05:10:53;14.82;;;7.25;;
23578;SDS011;11967;50.852;4.400;2023-07-16T05:13:19;16.35;;;7.28;;
23578;SDS011;11967;50.852;4.400;2023-07-16T05:15:45;18.75;;;7.00;;
23578;SDS011;11967;50.852;4.400;2023-07-16T05:18:11;16.77;;;7.15;;
23578;SDS011;11967;50.852;4.400;2023-07-16T05:20:37;15.00;;;6.82;;
23578;SDS011;11967;50.852;4.400;2023-07-16T05:23:04;13.38;;;7.18;;
23578;SDS011;11967;50.852;4.400;2023-07-16T05:25:30;16.92;;;6.68;;
23578;SDS011;11967;50.852;4.400;2023-07-16T05:27:55;13.60;;;7.03;;
23578;SDS011;11967;50.852;4.400;2023-07-16T05:30:21;15.55;;;6.80;;
23578;SDS011;11967;50.852;4.400;2023-07-16T05:32:47;17.88;;;7.45;;
23578;SDS011;11967;50.852;4.400;2023-07-16T05:35:12;22.58;;;7.38;;
23578;SDS011;11967;50.852;4.400;2023-07-16T05:37:38;16.98;;;7.22;;
23578;SDS011;11967;50.852;4.400;2023-07-16T05:40:04;17.83;;;8.20;;
23578;SDS011;11967;50.852;4.400;2023-07-16T05:42:34;19.52;;;7.80;;
23578;SDS011;11967;50.852;4.400;2023-07-16T05:45:00;16.70;;;7.15;;
23578;SDS011;11967;50.852;4.400;2023-07-16T05:47:25;22.58;;;7.65;;
23578;SDS011;11967;50.852;4.400;2023-07-16T05:49:52;15.20;;;7.22;;
23578;SDS011;11967;50.852;4.400;2023-07-16T05:52:18;22.02;;;7.60;;
23578;SDS011;11967;50.852;4.400;2023-07-16T05:54:44;18.48;;;7.28;;
23578;SDS011;11967;50.852;4.400;2023-07-16T05:57:12;17.17;;;8.18;;
23578;SDS011;11967;50.852;4.400;2023-07-16T05:59:38;21.25;;;7.60;;
23578;SDS011;11967;50.852;4.400;2023-07-16T06:02:04;17.90;;;7.60;;
23578;SDS011;11967;50.852;4.400;2023-07-16T06:04:29;20.70;;;8.30;;
23578;SDS011;11967;50.852;4.400;2023-07-16T06:06:56;19.92;;;8.00;;
23578;SDS011;11967;50.852;4.400;2023-07-16T06:09:22;18.95;;;7.90;;
23578;SDS011;11967;50.852;4.400;2023-07-16T06:11:47;23.00;;;7.72;;
23578;SDS011;11967;50.852;4.400;2023-07-16T06:14:14;20.08;;;8.57;;
23578;SDS011;11967;50.852;4.400;2023-07-16T06:16:40;24.25;;;8.20;;
23578;SDS011;11967;50.852;4.400;2023-07-16T06:19:08;21.30;;;8.68;;
23578;SDS011;11967;50.852;4.400;2023-07-16T06:21:33;21.27;;;8.02;;
23578;SDS011;11967;50.852;4.400;2023-07-16T06:23:59;17.52;;;8.50;;
23578;SDS011;11967;50.852;4.400;2023-07-16T06:26:25;22.75;;;8.40;;
23578;SDS011;11967;50.852;4.400;2023-07-16T06:28:50;16.48;;;8.35;;
23578;SDS011;11967;50.852;4.400;2023-07-16T06:31:16;18.75;;;8.00;;
23578;SDS011;11967;50.852;4.400;2023-07-16T06:33:42;20.38;;;8.18;;
23578;SDS011;11967;50.852;4.400;2023-07-16T06:36:08;20.88;;;8.57;;
23578;SDS011;11967;50.852;4.400;2023-07-16T06:38:35;23.70;;;8.80;;
23578;SDS011;11967;50.852;4.400;2023-07-16T06:41:01;21.92;;;8.13;;
23578;SDS011;11967;50.852;4.400;2023-07-16T06:43:27;25.10;;;8.88;;
23578;SDS011;11967;50.852;4.400;2023-07-16T06:45:53;20.65;;;9.25;;
23578;SDS011;11967;50.852;4.400;2023-07-16T06:48:19;19.15;;;8.65;;
23578;SDS011;11967;50.852;4.400;2023-07-16T06:50:44;23.25;;;8.50;;
23578;SDS011;11967;50.852;4.400;2023-07-16T06:53:10;21.58;;;8.82;;
23578;SDS011;11967;50.852;4.400;2023-07-16T06:55:36;17.25;;;8.38;;
23578;SDS011;11967;50.852;4.400;2023-07-16T06:58:02;21.38;;;8.55;;
23578;SDS011;11967;50.852;4.400;2023-07-16T07:00:28;22.85;;;8.43;;
23578;SDS011;11967;50.852;4.400;2023-07-16T07:02:54;22.27;;;8.20;;
23578;SDS011;11967;50.852;4.400;2023-07-16T07:05:19;18.77;;;8.27;;
23578;SDS011;11967;50.852;4.400;2023-07-16T07:07:45;18.45;;;8.85;;
23578;SDS011;11967;50.852;4.400;2023-07-16T07:10:14;18.17;;;8.02;;
23578;SDS011;11967;50.852;4.400;2023-07-16T07:12:39;20.35;;;8.82;;
23578;SDS011;11967;50.852;4.400;2023-07-16T07:15:06;19.83;;;8.18;;
23578;SDS011;11967;50.852;4.400;2023-07-16T07:17:32;15.48;;;7.90;;
23578;SDS011;11967;50.852;4.400;2023-07-16T07:19:58;20.00;;;8.32;;
23578;SDS011;11967;50.852;4.400;2023-07-16T07:22:24;16.88;;;7.90;;
23578;SDS011;11967;50.852;4.400;2023-07-16T07:24:50;24.55;;;8.43;;
23578;SDS011;11967;50.852;4.400;2023-07-16T07:27:16;17.65;;;8.48;;
23578;SDS011;11967;50.852;4.400;2023-07-16T07:29:41;22.25;;;7.82;;
23578;SDS011;11967;50.852;4.400;2023-07-16T07:32:07;17.27;;;8.13;;
23578;SDS011;11967;50.852;4.400;2023-07-16T07:34:33;15.95;;;7.88;;
23578;SDS011;11967;50.852;4.400;2023-07-16T07:36:58;17.42;;;8.23;;
23578;SDS011;11967;50.852;4.400;2023-07-16T07:39:24;17.58;;;8.23;;
23578;SDS011;11967;50.852;4.400;2023-07-16T07:41:49;20.17;;;8.68;;
23578;SDS011;11967;50.852;4.400;2023-07-16T07:44:15;23.63;;;9.15;;
23578;SDS011;11967;50.852;4.400;2023-07-16T07:46:41;22.27;;;8.65;;
23578;SDS011;11967;50.852;4.400;2023-07-16T07:49:07;18.02;;;8.05;;
23578;SDS011;11967;50.852;4.400;2023-07-16T07:51:34;19.40;;;9.07;;
23578;SDS011;11967;50.852;4.400;2023-07-16T07:54:00;24.90;;;9.43;;
23578;SDS011;11967;50.852;4.400;2023-07-16T07:56:26;19.80;;;8.68;;
23578;SDS011;11967;50.852;4.400;2023-07-16T07:58:51;16.70;;;8.07;;
23578;SDS011;11967;50.852;4.400;2023-07-16T08:01:17;20.17;;;8.20;;
23578;SDS011;11967;50.852;4.400;2023-07-16T08:03:42;15.52;;;7.28;;
23578;SDS011;11967;50.852;4.400;2023-07-16T08:06:08;13.85;;;7.78;;
23578;SDS011;11967;50.852;4.400;2023-07-16T08:08:36;20.70;;;8.57;;
23578;SDS011;11967;50.852;4.400;2023-07-16T08:11:01;19.95;;;8.07;;
23578;SDS011;11967;50.852;4.400;2023-07-16T08:13:27;16.75;;;8.63;;
23578;SDS011;11967;50.852;4.400;2023-07-16T08:15:53;17.17;;;8.50;;
23578;SDS011;11967;50.852;4.400;2023-07-16T08:18:18;20.95;;;9.05;;
23578;SDS011;11967;50.852;4.400;2023-07-16T08:20:44;17.23;;;7.88;;
23578;SDS011;11967;50.852;4.400;2023-07-16T08:23:11;18.38;;;7.88;;
23578;SDS011;11967;50.852;4.400;2023-07-16T08:25:37;16.60;;;7.15;;
23578;SDS011;11967;50.852;4.400;2023-07-16T08:28:03;13.82;;;7.15;;
23578;SDS011;11967;50.852;4.400;2023-07-16T08:30:29;15.02;;;7.10;;
23578;SDS011;11967;50.852;4.400;2023-07-16T08:32:54;18.30;;;8.30;;
23578;SDS011;11967;50.852;4.400;2023-07-16T08:35:20;16.67;;;7.63;;
23578;SDS011;11967;50.852;4.400;2023-07-16T08:37:46;14.55;;;6.80;;
23578;SDS011;11967;50.852;4.400;2023-07-16T08:40:12;18.77;;;7.85;;
23578;SDS011;11967;50.852;4.400;2023-07-16T08:42:38;13.32;;;6.93;;
23578;SDS011;11967;50.852;4.400;2023-07-16T08:45:09;18.70;;;7.45;;
23578;SDS011;11967;50.852;4.400;2023-07-16T08:47:35;13.93;;;6.57;;
23578;SDS011;11967;50.852;4.400;2023-07-16T08:50:01;17.30;;;6.97;;
23578;SDS011;11967;50.852;4.400;2023-07-16T08:52:27;16.50;;;6.90;;
23578;SDS011;11967;50.852;4.400;2023-07-16T08:54:54;16.15;;;6.28;;
23578;SDS011;11967;50.852;4.400;2023-07-16T08:57:20;14.15;;;6.28;;
23578;SDS011;11967;50.852;4.400;2023-07-16T08:59:50;12.80;;;5.75;;
23578;SDS011;11967;50.852;4.400;2023-07-16T09:02:19;12.30;;;6.53;;
23578;SDS011;11967;50.852;4.400;2023-07-16T09:04:48;16.77;;;6.55;;
23578;SDS011;11967;50.852;4.400;2023-07-16T09:07:16;13.13;;;6.25;;
23578;SDS011;11967;50.852;4.400;2023-07-16T09:09:41;15.75;;;6.07;;
23578;SDS011;11967;50.852;4.400;2023-07-16T09:12:11;15.95;;;6.05;;
23578;SDS011;11967;50.852;4.400;2023-07-16T09:14:37;20.27;;;6.47;;
23578;SDS011;11967;50.852;4.400;2023-07-16T09:17:05;14.13;;;6.00;;
23578;SDS011;11967;50.852;4.400;2023-07-16T09:19:34;13.85;;;6.18;;
23578;SDS011;11967;50.852;4.400;2023-07-16T09:22:01;17.67;;;6.30;;
23578;SDS011;11967;50.852;4.400;2023-07-16T09:24:26;14.50;;;5.80;;
23578;SDS011;11967;50.852;4.400;2023-07-16T09:26:54;15.02;;;5.82;;
23578;SDS011;11967;50.852;4.400;2023-07-16T09:29:21;15.65;;;6.13;;
23578;SDS011;11967;50.852;4.400;2023-07-16T09:31:54;14.73;;;5.70;;
23578;SDS011;11967;50.852;4.400;2023-07-16T09:34:26;13.82;;;5.65;;
23578;SDS011;11967;50.852;4.400;2023-07-16T09:36:53;12.15;;;5.90;;
23578;SDS011;11967;50.852;4.400;2023-07-16T09:39:19;14.38;;;5.57;;
23578;SDS011;11967;50.852;4.400;2023-07-16T09:41:49;15.75;;;6.55;;
23578;SDS011;11967;50.852;4.400;2023-07-16T09:44:15;14.23;;;6.05;;
23578;SDS011;11967;50.852;4.400;2023-07-16T09:46:43;12.00;;;6.28;;
23578;SDS011;11967;50.852;4.400;2023-07-16T09:49:10;15.25;;;6.25;;
23578;SDS011;11967;50.852;4.400;2023-07-16T09:51:37;15.60;;;6.25;;
23578;SDS011;11967;50.852;4.400;2023-07-16T09:54:04;11.65;;;5.78;;
23578;SDS011;11967;50.852;4.400;2023-07-16T09:56:35;16.65;;;6.15;;
23578;SDS011;11967;50.852;4.400;2023-07-16T09:59:14;18.92;;;6.50;;
23578;SDS011;11967;50.852;4.400;2023-07-16T10:01:41;13.68;;;5.95;;
23578;SDS011;11967;50.852;4.400;2023-07-16T10:04:14;16.52;;;6.50;;
23578;SDS011;11967;50.852;4.400;2023-07-16T10:06:57;20.08;;;6.35;;
23578;SDS011;11967;50.852;4.400;2023-07-16T10:12:15;15.63;;;6.60;;
23578;SDS011;11967;50.852;4.400;2023-07-16T10:14:43;13.52;;;5.85;;
23578;SDS011;11967;50.852;4.400;2023-07-16T10:17:15;11.02;;;5.45;;
23578;SDS011;11967;50.852;4.400;2023-07-16T10:22:36;14.43;;;5.88;;
23578;SDS011;11967;50.852;4.400;2023-07-16T10:25:03;17.05;;;6.20;;
23578;SDS011;11967;50.852;4.400;2023-07-16T10:27:47;12.63;;;6.20;;
23578;SDS011;11967;50.852;4.400;2023-07-16T10:30:14;17.67;;;6.03;;
23578;SDS011;11967;50.852;4.400;2023-07-16T10:32:40;13.95;;;5.88;;
23578;SDS011;11967;50.852;4.400;2023-07-16T10:35:06;11.98;;;6.20;;
23578;SDS011;11967;50.852;4.400;2023-07-16T10:37:35;14.25;;;5.78;;
23578;SDS011;11967;50.852;4.400;2023-07-16T10:40:02;14.50;;;6.18;;
23578;SDS011;11967;50.852;4.400;2023-07-16T10:42:28;15.98;;;5.93;;
23578;SDS011;11967;50.852;4.400;2023-07-16T10:44:58;12.32;;;6.00;;
23578;SDS011;11967;50.852;4.400;2023-07-16T10:47:29;15.50;;;5.70;;
23578;SDS011;11967;50.852;4.400;2023-07-16T10:49:54;15.40;;;5.97;;
23578;SDS011;11967;50.852;4.400;2023-07-16T10:52:22;13.07;;;5.45;;
23578;SDS011;11967;50.852;4.400;2023-07-16T10:54:48;14.00;;;6.22;;
23578;SDS011;11967;50.852;4.400;2023-07-16T10:57:15;18.83;;;6.63;;
23578;SDS011;11967;50.852;4.400;2023-07-16T10:59:42;14.73;;;5.47;;
23578;SDS011;11967;50.852;4.400;2023-07-16T11:02:11;15.70;;;5.65;;
23578;SDS011;11967;50.852;4.400;2023-07-16T11:04:38;12.98;;;5.40;;
23578;SDS011;11967;50.852;4.400;2023-07-16T11:07:05;14.20;;;5.60;;
23578;SDS011;11967;50.852;4.400;2023-07-16T11:09:32;12.63;;;6.40;;
23578;SDS011;11967;50.852;4.400;2023-07-16T11:12:05;10.63;;;5.30;;
23578;SDS011;11967;50.852;4.400;2023-07-16T11:14:33;9.30;;;5.57;;
23578;SDS011;11967;50.852;4.400;2023-07-16T11:17:09;14.13;;;6.03;;
23578;SDS011;11967;50.852;4.400;2023-07-16T11:19:35;11.45;;;5.80;;
23578;SDS011;11967;50.852;4.400;2023-07-16T11:22:03;12.30;;;5.75;;
23578;SDS011;11967;50.852;4.400;2023-07-16T11:24:39;14.85;;;5.93;;
23578;SDS011;11967;50.852;4.400;2023-07-16T11:27:13;13.30;;;4.97;;
23578;SDS011;11967;50.852;4.400;2023-07-16T11:34:52;11.65;;;5.47;;
23578;SDS011;11967;50.852;4.400;2023-07-16T11:37:22;14.10;;;5.00;;
23578;SDS011;11967;50.852;4.400;2023-07-16T11:39:50;9.27;;;5.28;;
23578;SDS011;11967;50.852;4.400;2023-07-16T11:42:23;11.63;;;5.00;;
23578;SDS011;11967;50.852;4.400;2023-07-16T11:47:15;12.38;;;6.55;;
23578;SDS011;11967;50.852;4.400;2023-07-16T11:49:40;12.35;;;5.75;;
23578;SDS011;11967;50.852;4.400;2023-07-16T11:52:06;11.43;;;5.47;;
23578;SDS011;11967;50.852;4.400;2023-07-16T11:54:32;12.90;;;5.90;;
23578;SDS011;11967;50.852;4.400;2023-07-16T11:56:58;13.50;;;5.20;;
23578;SDS011;11967;50.852;4.400;2023-07-16T11:59:23;17.17;;;5.45;;
23578;SDS011;11967;50.852;4.400;2023-07-16T12:01:49;14.63;;;5.63;;
23578;SDS011;11967;50.852;4.400;2023-07-16T12:04:15;13.13;;;5.57;;
23578;SDS011;11967;50.852;4.400;2023-07-16T12:06:42;14.20;;;5.00;;
23578;SDS011;11967;50.852;4.400;2023-07-16T12:09:08;13.38;;;6.00;;
23578;SDS011;11967;50.852;4.400;2023-07-16T12:11:33;10.65;;;5.10;;
23578;SDS011;11967;50.852;4.400;2023-07-16T12:13:59;14.68;;;5.72;;
23578;SDS011;11967;50.852;4.400;2023-07-16T12:16:25;13.18;;;5.65;;
23578;SDS011;11967;50.852;4.400;2023-07-16T12:18:50;14.13;;;5.38;;
23578;SDS011;11967;50.852;4.400;2023-07-16T12:21:16;9.88;;;5.13;;
23578;SDS011;11967;50.852;4.400;2023-07-16T12:23:42;8.27;;;4.53;;
23578;SDS011;11967;50.852;4.400;2023-07-16T12:26:07;11.18;;;4.90;;
23578;SDS011;11967;50.852;4.400;2023-07-16T12:28:33;14.88;;;5.05;;
23578;SDS011;11967;50.852;4.400;2023-07-16T12:30:59;14.68;;;5.65;;
23578;SDS011;11967;50.852;4.400;2023-07-16T12:33:25;13.30;;;4.75;;
23578;SDS011;11967;50.852;4.400;2023-07-16T12:35:50;10.35;;;5.15;;
23578;SDS011;11967;50.852;4.400;2023-07-16T12:38:16;12.80;;;4.82;;
23578;SDS011;11967;50.852;4.400;2023-07-16T12:40:42;10.23;;;4.70;;
23578;SDS011;11967;50.852;4.400;2023-07-16T12:43:08;12.57;;;4.82;;
23578;SDS011;11967;50.852;4.400;2023-07-16T12:45:33;10.80;;;4.70;;
23578;SDS011;11967;50.852;4.400;2023-07-16T12:47:59;12.45;;;4.88;;
23578;SDS011;11967;50.852;4.400;2023-07-16T12:50:25;11.38;;;5.10;;
23578;SDS011;11967;50.852;4.400;2023-07-16T12:52:52;11.05;;;4.50;;
23578;SDS011;11967;50.852;4.400;2023-07-16T12:55:18;9.68;;;4.28;;
23578;SDS011;11967;50.852;4.400;2023-07-16T12:57:44;11.25;;;4.70;;
23578;SDS011;11967;50.852;4.400;2023-07-16T13:00:09;12.43;;;4.90;;
23578;SDS011;11967;50.852;4.400;2023-07-16T13:02:36;10.05;;;4.70;;
23578;SDS011;11967;50.852;4.400;2023-07-16T13:05:03;11.27;;;4.50;;
23578;SDS011;11967;50.852;4.400;2023-07-16T13:07:29;10.13;;;5.68;;
23578;SDS011;11967;50.852;4.400;2023-07-16T13:09:56;10.57;;;4.40;;
23578;SDS011;11967;50.852;4.400;2023-07-16T13:12:22;13.25;;;4.60;;
23578;SDS011;11967;50.852;4.400;2023-07-16T13:14:48;10.70;;;4.60;;
23578;SDS011;11967;50.852;4.400;2023-07-16T13:17:13;7.80;;;4.10;;
23578;SDS011;11967;50.852;4.400;2023-07-16T13:19:41;8.30;;;4.07;;
23578;SDS011;11967;50.852;4.400;2023-07-16T13:22:06;8.63;;;3.95;;
23578;SDS011;11967;50.852;4.400;2023-07-16T13:24:32;10.88;;;4.47;;
23578;SDS011;11967;50.852;4.400;2023-07-16T13:26:58;10.15;;;4.47;;
23578;SDS011;11967;50.852;4.400;2023-07-16T13:29:23;11.18;;;4.38;;
23578;SDS011;11967;50.852;4.400;2023-07-16T13:31:49;7.63;;;3.70;;
23578;SDS011;11967;50.852;4.400;2023-07-16T13:34:15;9.65;;;3.95;;
23578;SDS011;11967;50.852;4.400;2023-07-16T13:36:40;7.43;;;3.58;;
23578;SDS011;11967;50.852;4.400;2023-07-16T13:39:06;8.77;;;3.75;;
23578;SDS011;11967;50.852;4.400;2023-07-16T13:41:32;9.63;;;3.95;;
23578;SDS011;11967;50.852;4.400;2023-07-16T13:43:57;8.05;;;3.47;;
23578;SDS011;11967;50.852;4.400;2023-07-16T13:46:23;7.25;;;2.95;;
23578;SDS011;11967;50.852;4.400;2023-07-16T13:48:50;6.43;;;2.97;;
23578;SDS011;11967;50.852;4.400;2023-07-16T13:51:15;8.35;;;3.25;;
23578;SDS011;11967;50.852;4.400;2023-07-16T13:53:41;7.85;;;3.35;;
23578;SDS011;11967;50.852;4.400;2023-07-16T13:56:07;6.57;;;3.75;;
23578;SDS011;11967;50.852;4.400;2023-07-16T13:58:33;7.35;;;3.30;;
23578;SDS011;11967;50.852;4.400;2023-07-16T14:00:59;7.53;;;3.05;;
23578;SDS011;11967;50.852;4.400;2023-07-16T14:03:24;4.53;;;2.95;;
23578;SDS011;11967;50.852;4.400;2023-07-16T14:05:51;5.40;;;2.97;;
23578;SDS011;11967;50.852;4.400;2023-07-16T14:08:18;8.50;;;3.60;;
23578;SDS011;11967;50.852;4.400;2023-07-16T14:10:43;6.88;;;3.40;;
23578;SDS011;11967;50.852;4.400;2023-07-16T14:13:09;7.53;;;3.53;;
23578;SDS011;11967;50.852;4.400;2023-07-16T14:15:35;10.70;;;3.92;;
23578;SDS011;11967;50.852;4.400;2023-07-16T14:18:00;7.47;;;3.47;;
23578;SDS011;11967;50.852;4.400;2023-07-16T14:20:26;7.95;;;3.65;;
23578;SDS011;11967;50.852;4.400;2023-07-16T14:22:52;8.93;;;4.00;;
23578;SDS011;11967;50.852;4.400;2023-07-16T14:25:17;8.48;;;4.05;;
23578;SDS011;11967;50.852;4.400;2023-07-16T14:27:43;10.75;;;4.18;;
23578;SDS011;11967;50.852;4.400;2023-07-16T14:30:09;9.50;;;3.95;;
23578;SDS011;11967;50.852;4.400;2023-07-16T14:32:35;10.45;;;3.88;;
23578;SDS011;11967;50.852;4.400;2023-07-16T14:35:01;7.95;;;3.65;;
23578;SDS011;11967;50.852;4.400;2023-07-16T14:37:30;8.35;;;4.20;;
23578;SDS011;11967;50.852;4.400;2023-07-16T14:39:55;8.57;;;3.80;;
23578;SDS011;11967;50.852;4.400;2023-07-16T14:42:21;9.18;;;3.85;;
23578;SDS011;11967;50.852;4.400;2023-07-16T14:44:47;9.13;;;3.80;;
23578;SDS011;11967;50.852;4.400;2023-07-16T14:47:12;4.85;;;2.90;;
23578;SDS011;11967;50.852;4.400;2023-07-16T14:49:38;8.90;;;3.50;;
23578;SDS011;11967;50.852;4.400;2023-07-16T14:52:03;6.38;;;2.97;;
23578;SDS011;11967;50.852;4.400;2023-07-16T14:54:30;8.57;;;3.20;;